Scroll down
FLIGHT INFORMATION
Federal Express (FedEx)

FDX75

At Arrival Gate

PHNL
 NZAA
DATE: 2022-07-31
GATE: C
GATE DEPARTURE: 19:48
TAKEOFF: 20:00
DATE: 2022-08-01
GATE:  -
LANDING: 04:20
GATE ARRIVAL: 04:24
FLIGHT DATA
Crew: 
Speed: 
499 kts
Altitude: 
37,032 ft
Stage Length: 
3,827.5 nm
Block Time: 
8.6 hrs
Flight Time: 
8.3 hrs
Fuel Used: 
132,428 lb
Cleared Route: PHNL CHOKO DATBE DASNE DULCE DUNEY PUPIS UXULU LANAT UBRAX POPIR KADEN MALNI TARIB AA NZAA
TRACK DATA
50,000 ft 1,000 kts
AIRCRAFT INFO AND CUMULATIVE STATS
Aircraft Type: 
B77LF
Registration: 
SELCAL: 
DELM
MSN/LN: 
40684 / 1524
Total Flights: 
2
Total Block Time: 
21.3 hrs
Total Flight Time: 
20.8 hrs
Total Fuel Used: 
361,351 lb
DATALINK LOG | Newest first | Current as of: 2022-08-16 08:04:17
LABEL SEQUENCE CONTENT Dn/Up
QD060604:24 31.5▼ Dn
QC020204:20▼ Dn
2U3639NZAA 010400Z AUTO 22008KT 9999 NCD 14/08 Q1026 NOSIG▲ Up
2S3639NZAA▼ Dn
QB020120:00▼ Dn
QA495019:48 163.9▼ Dn
A33839CLEARED TO NZAA VIA OPIHI3 choko datbe DASNE G347 AA . SQUAWK 0774.▲ Up
B33839PHNL NZAA FDX75 N878FD ▼ Dn
2U3133PHNL 311753Z 04009KT 10SM FEW026 SCT040 BKN050 26/19 A3011 RMK AO2 SLP195 T02560189 10256 20250 53009▲ Up
2U3132NZCH 311800Z AUTO 26001KT 9999 NCD 00/M02 Q1018 NOSIG▲ Up
2U3132NZAA 311800Z AUTO 23010KT 9999 NCD 11/07 Q1022 NOSIG▲ Up
2S3132PHNL NZAA NZCH▼ Dn
A73031CLEARANCE AVAIL WITHIN 0:25 OF EDT▲ Up
B33031PHNL NZAA FDX75 N878FD ▼ Dn
Q02829[LINK ACK]▲ Up
Q02829[LINK TEST]▼ Dn


AIRCRAFT HISTORY
FLIGHT DATE FLIGHT NO. ORIGIN DESTINATION CLEARED ROUTE BLOCK TIME FLIGHT TIME FUEL USED PILOT
2022-07-31FDX75PHNL NZAA PHNL CHOKO DATBE DASNE DULCE DUNEY PUPIS UXULU LANAT UBRAX POPIR KADEN MALNI TARIB AA NZAA8.6 hrs8.3 hrs132,428 lbAllan Burek
2021-07-29FDX5601WSSS PHNL WSSS HOSBA TOMAN VERIN LUSMO TERIX OLKIT DOGOG VIDIP VJN TOMUD AKMAR VSN VIMAG ANKUR PILAS ZAM GOSTO SABTA COT LINAO DEWIN KLAFU 09E30 11E35 12E40 UNZ BAGBE HOPPY FONUG STINE DEWSS JIMOS NGUEN NATIE RESEE SYSTA BRIUN HOOPA KATHS PHNL12.7 hrs12.5 hrs228,923 lbAllan Burek